CST,Max TemperatureF,Mean TemperatureF,Min TemperatureF,Max Dew PointF,MeanDew PointF,Min DewpointF,Max Humidity, Mean Humidity, Min Humidity, Max Sea Level PressureIn, Mean Sea Level PressureIn, Min Sea Level PressureIn, Max VisibilityMiles, Mean VisibilityMiles, Min VisibilityMiles, Max Wind SpeedMPH, Mean Wind SpeedMPH, Max Gust SpeedMPH,PrecipitationIn, CloudCover, Events, WindDirDegrees
2013-1-1,21,4,-14,18,2,-22,93,80,70,30.25,30.13,29.98,10,9,5,14,3,,0.00,7,Snow,202
2013-1-2,24,15,6,21,11,1,93,85,73,30.14,29.98,29.90,10,6,1,21,5,24,0.00,5,Snow,283
2013-1-3,12,6,0,9,2,-6,92,80,72,30.29,30.19,30.05,10,10,5,24,13,29,0.00,2,Snow,266
2013-1-4,23,14,6,14,9,1,92,76,63,30.11,30.06,30.00,10,10,5,14,7,,0.00,0,,257
2013-1-5,17,8,0,10,3,-6,92,81,73,30.09,29.96,29.86,10,9,4,21,6,21,0.00,1,Snow,302
2013-1-6,21,12,5,14,7,-2,92,85,67,30.23,30.12,29.88,10,7,0,18,9,22,0.00,4,Snow,210
2013-1-7,32,26,19,23,18,14,86,76,64,29.96,29.89,29.83,10,10,10,15,7,17,0.00,0,,229
2013-1-8,33,22,12,28,18,9,93,84,70,29.95,29.83,29.69,10,9,5,23,7,22,0.00,1,Snow,156
2013-1-9,33,26,19,27,19,14,86,74,64,30.33,30.17,29.91,10,10,5,24,13,30,0.00,0,,237
2013-1-10,35,30,26,30,25,21,100,77,60,30.19,30.00,29.66,10,8,1,22,11,29,0.10,3,Rain-Snow,150
2013-1-11,33,27,19,32,31,18,100,93,87,29.64,29.46,29.35,10,2,0,21,12,24,0.00,8,Fog-Rain-Snow,157
2013-1-12,17,9,1,16,3,-4,93,84,78,30.07,29.86,29.44,10,6,1,29,21,36,0.00,6,Snow,292
2013-1-13,6,2,-2,0,-4,-8,85,77,67,30.22,30.13,30.06,10,10,10,18,13,21,0.00,3,,299
2013-1-14,6,0,-5,1,-4,-9,85,77,67,30.39,30.30,30.23,10,10,5,10,6,,0.00,2,Snow,229
2013-1-15,21,10,-2,14,5,-8,85,74,63,30.23,30.06,29.75,10,10,10,8,4,,0.00,2,,188
2013-1-16,33,16,0,30,15,-9,93,77,59,30.26,29.89,29.64,10,8,0,21,13,26,0.00,5,Snow,296
2013-1-17,17,6,-4,9,-1,-11,73,66,56,30.38,30.33,30.21,10,10,10,16,7,,0.00,4,,272
2013-1-18,35,25,15,27,21,9,93,80,68,30.20,29.85,29.73,10,10,5,20,11,,0.00,1,,208
2013-1-19,35,18,-2,28,12,-9,93,76,61,30.29,29.92,29.69,10,10,5,44,14,51,0.00,3,,292
2013-1-20,6,0,-5,0,-8,-15,78,69,61,30.40,30.33,30.27,10,9,2,21,15,26,0.00,1,,304
2013-1-21,-4,-8,-13,-13,-18,-22,77,67,59,30.35,30.30,30.27,10,10,3,26,15,31,0.00,0,,295
2013-1-22,5,-6,-16,-2,-14,-24,77,70,61,30.36,30.29,30.20,10,10,2,7,4,,0.00,2,Snow,217
2013-1-23,6,-2,-9,1,-7,-18,85,71,55,30.59,30.31,30.13,10,8,1,28,8,33,0.00,3,Snow,320
2013-1-24,12,2,-9,3,-10,-20,67,61,54,30.62,30.41,30.09,10,10,10,22,10,26,0.00,2,,128
2013-1-25,17,8,-4,10,-1,-9,78,69,61,30.30,30.11,29.94,10,10,5,29,12,36,0.00,3,Snow,295
2013-1-26,21,7,-7,10,0,-15,78,71,63,30.29,30.18,30.02,10,10,10,18,7,22,0.00,0,,124
2013-1-27,30,24,19,28,21,10,93,81,68,30.01,29.87,29.77,10,7,2,17,12,,0.05,5,Snow,123
2013-1-28,32,31,30,30,29,28,100,96,93,29.85,29.79,29.65,5,1,0,12,4,,0.01,8,Fog-Snow,136
2013-1-29,30,26,21,30,24,18,100,90,80,29.81,29.69,29.57,10,5,2,23,9,26,0.00,7,Snow,327
2013-1-30,21,10,0,16,4,-8,86,76,72,29.83,29.77,29.74,10,8,3,29,20,32,0.00,8,Snow,317
2013-1-31,-2,-6,-11,-8,-15,-20,78,69,64,30.28,30.08,29.83,10,6,0,31,22,38,0.00,5,Snow,305